sensor_id;sensor_type;location;lat;lon;timestamp;P1;durP1;ratioP1;P2;durP2;ratioP2
14251;SDS011;7210;51.502;10.722;2023-12-07T00:01:12;35.83;;;25.43;;
14251;SDS011;7210;51.502;10.722;2023-12-07T00:03:38;39.53;;;26.57;;
14251;SDS011;7210;51.502;10.722;2023-12-07T00:06:07;34.63;;;25.70;;
14251;SDS011;7210;51.502;10.722;2023-12-07T00:08:34;37.23;;;26.03;;
14251;SDS011;7210;51.502;10.722;2023-12-07T00:11:01;36.37;;;25.40;;
14251;SDS011;7210;51.502;10.722;2023-12-07T00:13:28;39.53;;;26.20;;
14251;SDS011;7210;51.502;10.722;2023-12-07T00:15:55;38.83;;;25.80;;
14251;SDS011;7210;51.502;10.722;2023-12-07T00:18:21;39.00;;;25.70;;
14251;SDS011;7210;51.502;10.722;2023-12-07T00:20:48;36.17;;;25.60;;
14251;SDS011;7210;51.502;10.722;2023-12-07T00:23:17;38.17;;;26.47;;
14251;SDS011;7210;51.502;10.722;2023-12-07T00:25:43;36.07;;;25.93;;
14251;SDS011;7210;51.502;10.722;2023-12-07T00:28:11;32.13;;;24.50;;
14251;SDS011;7210;51.502;10.722;2023-12-07T00:30:38;35.40;;;24.77;;
14251;SDS011;7210;51.502;10.722;2023-12-07T00:33:07;38.10;;;25.73;;
14251;SDS011;7210;51.502;10.722;2023-12-07T00:35:34;33.23;;;24.07;;
14251;SDS011;7210;51.502;10.722;2023-12-07T00:38:01;33.63;;;24.33;;
14251;SDS011;7210;51.502;10.722;2023-12-07T00:40:35;34.00;;;24.33;;
14251;SDS011;7210;51.502;10.722;2023-12-07T00:43:09;34.03;;;24.03;;
14251;SDS011;7210;51.502;10.722;2023-12-07T00:45:37;33.07;;;25.07;;
14251;SDS011;7210;51.502;10.722;2023-12-07T00:48:04;33.83;;;24.87;;
14251;SDS011;7210;51.502;10.722;2023-12-07T00:50:31;35.97;;;25.53;;
14251;SDS011;7210;51.502;10.722;2023-12-07T00:52:58;32.83;;;24.13;;
14251;SDS011;7210;51.502;10.722;2023-12-07T00:55:25;35.30;;;25.00;;
14251;SDS011;7210;51.502;10.722;2023-12-07T00:57:59;32.57;;;23.87;;
14251;SDS011;7210;51.502;10.722;2023-12-07T01:00:26;31.97;;;22.50;;
14251;SDS011;7210;51.502;10.722;2023-12-07T01:02:53;32.70;;;22.67;;
14251;SDS011;7210;51.502;10.722;2023-12-07T01:05:20;31.10;;;22.77;;
14251;SDS011;7210;51.502;10.722;2023-12-07T01:07:47;30.77;;;21.73;;
14251;SDS011;7210;51.502;10.722;2023-12-07T01:10:14;32.47;;;21.97;;
14251;SDS011;7210;51.502;10.722;2023-12-07T01:12:41;30.93;;;22.47;;
14251;SDS011;7210;51.502;10.722;2023-12-07T01:15:09;33.23;;;23.30;;
14251;SDS011;7210;51.502;10.722;2023-12-07T01:17:36;31.23;;;23.33;;
14251;SDS011;7210;51.502;10.722;2023-12-07T01:20:04;35.50;;;23.77;;
14251;SDS011;7210;51.502;10.722;2023-12-07T01:22:37;30.50;;;22.50;;
14251;SDS011;7210;51.502;10.722;2023-12-07T01:25:05;32.63;;;22.73;;
14251;SDS011;7210;51.502;10.722;2023-12-07T01:27:32;33.80;;;23.50;;
14251;SDS011;7210;51.502;10.722;2023-12-07T01:30:03;35.90;;;23.83;;
14251;SDS011;7210;51.502;10.722;2023-12-07T01:32:32;32.80;;;23.67;;
14251;SDS011;7210;51.502;10.722;2023-12-07T01:35:00;31.77;;;22.90;;
14251;SDS011;7210;51.502;10.722;2023-12-07T01:37:27;31.67;;;22.07;;
14251;SDS011;7210;51.502;10.722;2023-12-07T01:39:55;30.10;;;21.93;;
14251;SDS011;7210;51.502;10.722;2023-12-07T01:42:22;31.43;;;22.33;;
14251;SDS011;7210;51.502;10.722;2023-12-07T01:44:49;31.80;;;21.73;;
14251;SDS011;7210;51.502;10.722;2023-12-07T01:47:16;28.47;;;21.37;;
14251;SDS011;7210;51.502;10.722;2023-12-07T01:49:44;28.97;;;21.63;;
14251;SDS011;7210;51.502;10.722;2023-12-07T01:52:11;31.13;;;20.63;;
14251;SDS011;7210;51.502;10.722;2023-12-07T01:54:39;27.57;;;20.10;;
14251;SDS011;7210;51.502;10.722;2023-12-07T01:57:06;27.73;;;19.83;;
14251;SDS011;7210;51.502;10.722;2023-12-07T01:59:33;24.00;;;18.40;;
14251;SDS011;7210;51.502;10.722;2023-12-07T02:02:00;25.87;;;20.07;;
14251;SDS011;7210;51.502;10.722;2023-12-07T02:04:27;25.50;;;19.60;;
14251;SDS011;7210;51.502;10.722;2023-12-07T02:06:57;26.17;;;19.90;;
14251;SDS011;7210;51.502;10.722;2023-12-07T02:09:26;26.00;;;19.93;;
14251;SDS011;7210;51.502;10.722;2023-12-07T02:11:53;24.23;;;18.70;;
14251;SDS011;7210;51.502;10.722;2023-12-07T02:14:21;26.00;;;19.83;;
14251;SDS011;7210;51.502;10.722;2023-12-07T02:16:49;26.97;;;18.63;;
14251;SDS011;7210;51.502;10.722;2023-12-07T02:19:34;27.73;;;19.90;;
14251;SDS011;7210;51.502;10.722;2023-12-07T02:22:25;25.83;;;18.47;;
14251;SDS011;7210;51.502;10.722;2023-12-07T02:25:04;26.77;;;20.00;;
14251;SDS011;7210;51.502;10.722;2023-12-07T02:27:38;27.33;;;19.77;;
14251;SDS011;7210;51.502;10.722;2023-12-07T02:30:07;25.47;;;19.53;;
14251;SDS011;7210;51.502;10.722;2023-12-07T02:32:35;26.87;;;20.07;;
14251;SDS011;7210;51.502;10.722;2023-12-07T02:35:02;26.23;;;19.60;;
14251;SDS011;7210;51.502;10.722;2023-12-07T02:37:32;27.87;;;19.73;;
14251;SDS011;7210;51.502;10.722;2023-12-07T02:40:09;26.43;;;20.33;;
14251;SDS011;7210;51.502;10.722;2023-12-07T02:42:47;27.23;;;20.23;;
14251;SDS011;7210;51.502;10.722;2023-12-07T02:45:14;27.00;;;20.83;;
14251;SDS011;7210;51.502;10.722;2023-12-07T02:47:45;27.47;;;20.70;;
14251;SDS011;7210;51.502;10.722;2023-12-07T02:50:12;26.57;;;20.73;;
14251;SDS011;7210;51.502;10.722;2023-12-07T02:52:45;27.30;;;20.77;;
14251;SDS011;7210;51.502;10.722;2023-12-07T02:55:15;28.77;;;20.87;;
14251;SDS011;7210;51.502;10.722;2023-12-07T02:57:42;27.20;;;19.57;;
14251;SDS011;7210;51.502;10.722;2023-12-07T03:00:11;27.33;;;20.20;;
14251;SDS011;7210;51.502;10.722;2023-12-07T03:02:39;28.70;;;20.20;;
14251;SDS011;7210;51.502;10.722;2023-12-07T03:05:07;26.63;;;20.50;;
14251;SDS011;7210;51.502;10.722;2023-12-07T03:07:34;29.50;;;21.10;;
14251;SDS011;7210;51.502;10.722;2023-12-07T03:10:03;28.80;;;21.00;;
14251;SDS011;7210;51.502;10.722;2023-12-07T03:12:33;27.30;;;20.73;;
14251;SDS011;7210;51.502;10.722;2023-12-07T03:15:00;29.40;;;21.80;;
14251;SDS011;7210;51.502;10.722;2023-12-07T03:17:35;31.43;;;22.53;;
14251;SDS011;7210;51.502;10.722;2023-12-07T03:20:02;32.23;;;22.40;;
14251;SDS011;7210;51.502;10.722;2023-12-07T03:22:30;29.50;;;20.70;;
14251;SDS011;7210;51.502;10.722;2023-12-07T03:24:57;32.43;;;22.43;;
14251;SDS011;7210;51.502;10.722;2023-12-07T03:27:24;27.63;;;20.27;;
14251;SDS011;7210;51.502;10.722;2023-12-07T03:29:52;28.37;;;21.23;;
14251;SDS011;7210;51.502;10.722;2023-12-07T03:32:27;29.37;;;21.30;;
14251;SDS011;7210;51.502;10.722;2023-12-07T03:34:55;27.80;;;21.33;;
14251;SDS011;7210;51.502;10.722;2023-12-07T03:37:22;30.93;;;22.37;;
14251;SDS011;7210;51.502;10.722;2023-12-07T03:39:49;29.17;;;21.00;;
14251;SDS011;7210;51.502;10.722;2023-12-07T03:42:21;28.37;;;21.97;;
14251;SDS011;7210;51.502;10.722;2023-12-07T03:44:48;29.00;;;20.53;;
14251;SDS011;7210;51.502;10.722;2023-12-07T03:47:15;30.37;;;21.83;;
14251;SDS011;7210;51.502;10.722;2023-12-07T03:49:43;30.40;;;21.70;;
14251;SDS011;7210;51.502;10.722;2023-12-07T03:52:17;27.73;;;20.83;;
14251;SDS011;7210;51.502;10.722;2023-12-07T03:54:44;26.70;;;20.30;;
14251;SDS011;7210;51.502;10.722;2023-12-07T03:57:10;29.57;;;20.67;;
14251;SDS011;7210;51.502;10.722;2023-12-07T03:59:37;30.23;;;22.17;;
14251;SDS011;7210;51.502;10.722;2023-12-07T04:02:04;28.80;;;20.67;;
14251;SDS011;7210;51.502;10.722;2023-12-07T04:04:33;29.47;;;22.10;;
14251;SDS011;7210;51.502;10.722;2023-12-07T04:07:00;28.33;;;20.67;;
14251;SDS011;7210;51.502;10.722;2023-12-07T04:09:28;29.47;;;20.73;;
14251;SDS011;7210;51.502;10.722;2023-12-07T04:11:56;27.70;;;20.77;;
14251;SDS011;7210;51.502;10.722;2023-12-07T04:14:27;27.37;;;21.17;;
14251;SDS011;7210;51.502;10.722;2023-12-07T04:16:54;27.17;;;20.53;;
14251;SDS011;7210;51.502;10.722;2023-12-07T04:19:21;30.43;;;21.83;;
14251;SDS011;7210;51.502;10.722;2023-12-07T04:21:48;28.57;;;21.73;;
14251;SDS011;7210;51.502;10.722;2023-12-07T04:24:15;28.70;;;21.53;;
14251;SDS011;7210;51.502;10.722;2023-12-07T04:26:53;29.57;;;22.20;;
14251;SDS011;7210;51.502;10.722;2023-12-07T04:29:21;30.77;;;22.40;;
14251;SDS011;7210;51.502;10.722;2023-12-07T04:31:47;27.73;;;20.73;;
14251;SDS011;7210;51.502;10.722;2023-12-07T04:34:15;30.23;;;21.80;;
14251;SDS011;7210;51.502;10.722;2023-12-07T04:36:42;29.23;;;21.57;;
14251;SDS011;7210;51.502;10.722;2023-12-07T04:39:09;30.33;;;20.77;;
14251;SDS011;7210;51.502;10.722;2023-12-07T04:41:36;29.83;;;20.93;;
14251;SDS011;7210;51.502;10.722;2023-12-07T04:44:05;29.87;;;21.17;;
14251;SDS011;7210;51.502;10.722;2023-12-07T04:46:33;31.23;;;22.27;;
14251;SDS011;7210;51.502;10.722;2023-12-07T04:49:00;29.80;;;22.07;;
14251;SDS011;7210;51.502;10.722;2023-12-07T04:51:33;28.63;;;20.83;;
14251;SDS011;7210;51.502;10.722;2023-12-07T04:54:00;31.07;;;21.40;;
14251;SDS011;7210;51.502;10.722;2023-12-07T04:56:28;30.30;;;22.07;;
14251;SDS011;7210;51.502;10.722;2023-12-07T04:58:55;31.03;;;21.57;;
14251;SDS011;7210;51.502;10.722;2023-12-07T05:01:23;32.23;;;21.73;;
14251;SDS011;7210;51.502;10.722;2023-12-07T05:03:50;30.97;;;22.97;;
14251;SDS011;7210;51.502;10.722;2023-12-07T05:06:17;36.57;;;23.20;;
14251;SDS011;7210;51.502;10.722;2023-12-07T05:08:45;33.70;;;23.53;;
14251;SDS011;7210;51.502;10.722;2023-12-07T05:11:12;32.93;;;23.47;;
14251;SDS011;7210;51.502;10.722;2023-12-07T05:13:45;29.33;;;22.07;;
14251;SDS011;7210;51.502;10.722;2023-12-07T05:16:13;29.80;;;21.73;;
14251;SDS011;7210;51.502;10.722;2023-12-07T05:18:41;29.60;;;22.70;;
14251;SDS011;7210;51.502;10.722;2023-12-07T05:21:09;29.37;;;20.50;;
14251;SDS011;7210;51.502;10.722;2023-12-07T05:23:36;28.03;;;20.93;;
14251;SDS011;7210;51.502;10.722;2023-12-07T05:26:04;29.83;;;21.43;;
14251;SDS011;7210;51.502;10.722;2023-12-07T05:31:18;26.10;;;20.27;;
14251;SDS011;7210;51.502;10.722;2023-12-07T05:33:46;28.87;;;20.40;;
14251;SDS011;7210;51.502;10.722;2023-12-07T05:36:13;27.23;;;20.67;;
14251;SDS011;7210;51.502;10.722;2023-12-07T05:38:51;25.77;;;20.57;;
14251;SDS011;7210;51.502;10.722;2023-12-07T05:41:18;25.90;;;19.83;;
14251;SDS011;7210;51.502;10.722;2023-12-07T05:43:45;23.87;;;19.37;;
14251;SDS011;7210;51.502;10.722;2023-12-07T05:46:12;26.30;;;19.70;;
14251;SDS011;7210;51.502;10.722;2023-12-07T05:48:39;26.90;;;19.10;;
14251;SDS011;7210;51.502;10.722;2023-12-07T05:51:11;27.03;;;20.07;;
14251;SDS011;7210;51.502;10.722;2023-12-07T05:53:45;25.80;;;19.77;;
14251;SDS011;7210;51.502;10.722;2023-12-07T05:56:12;27.97;;;20.53;;
14251;SDS011;7210;51.502;10.722;2023-12-07T05:58:45;28.10;;;20.43;;
14251;SDS011;7210;51.502;10.722;2023-12-07T06:01:12;27.83;;;20.13;;
14251;SDS011;7210;51.502;10.722;2023-12-07T06:03:42;28.13;;;19.23;;
14251;SDS011;7210;51.502;10.722;2023-12-07T06:06:11;25.97;;;20.00;;
14251;SDS011;7210;51.502;10.722;2023-12-07T06:08:37;25.40;;;19.77;;
14251;SDS011;7210;51.502;10.722;2023-12-07T06:11:05;28.77;;;20.50;;
14251;SDS011;7210;51.502;10.722;2023-12-07T06:13:33;26.63;;;19.43;;
14251;SDS011;7210;51.502;10.722;2023-12-07T06:16:00;26.07;;;20.00;;
14251;SDS011;7210;51.502;10.722;2023-12-07T06:18:33;24.37;;;18.97;;
14251;SDS011;7210;51.502;10.722;2023-12-07T06:21:00;28.97;;;19.80;;
14251;SDS011;7210;51.502;10.722;2023-12-07T06:23:29;25.67;;;20.00;;
14251;SDS011;7210;51.502;10.722;2023-12-07T06:25:56;26.67;;;20.07;;
14251;SDS011;7210;51.502;10.722;2023-12-07T06:28:27;28.20;;;20.10;;
14251;SDS011;7210;51.502;10.722;2023-12-07T06:30:57;27.00;;;19.93;;
14251;SDS011;7210;51.502;10.722;2023-12-07T06:33:27;27.00;;;19.90;;
14251;SDS011;7210;51.502;10.722;2023-12-07T06:35:54;24.63;;;18.57;;
14251;SDS011;7210;51.502;10.722;2023-12-07T06:38:21;33.27;;;18.93;;
14251;SDS011;7210;51.502;10.722;2023-12-07T06:40:53;27.00;;;20.13;;
14251;SDS011;7210;51.502;10.722;2023-12-07T06:43:21;31.20;;;20.87;;
14251;SDS011;7210;51.502;10.722;2023-12-07T06:45:51;28.60;;;20.53;;
14251;SDS011;7210;51.502;10.722;2023-12-07T06:54:03;27.60;;;20.07;;
14251;SDS011;7210;51.502;10.722;2023-12-07T06:56:32;25.57;;;19.20;;
14251;SDS011;7210;51.502;10.722;2023-12-07T06:59:03;27.83;;;20.20;;
14251;SDS011;7210;51.502;10.722;2023-12-07T07:01:33;27.80;;;20.43;;
14251;SDS011;7210;51.502;10.722;2023-12-07T07:06:42;29.17;;;20.30;;
14251;SDS011;7210;51.502;10.722;2023-12-07T07:09:09;28.43;;;20.27;;
14251;SDS011;7210;51.502;10.722;2023-12-07T07:11:41;26.13;;;19.97;;
14251;SDS011;7210;51.502;10.722;2023-12-07T07:17:06;29.10;;;21.07;;
14251;SDS011;7210;51.502;10.722;2023-12-07T07:19:33;32.53;;;20.90;;
14251;SDS011;7210;51.502;10.722;2023-12-07T07:22:09;29.60;;;21.30;;
14251;SDS011;7210;51.502;10.722;2023-12-07T07:24:36;27.80;;;19.50;;
14251;SDS011;7210;51.502;10.722;2023-12-07T07:27:05;31.07;;;20.57;;
14251;SDS011;7210;51.502;10.722;2023-12-07T07:29:33;26.40;;;19.73;;
14251;SDS011;7210;51.502;10.722;2023-12-07T07:32:03;29.20;;;20.47;;
14251;SDS011;7210;51.502;10.722;2023-12-07T07:34:33;32.80;;;20.93;;
14251;SDS011;7210;51.502;10.722;2023-12-07T07:37:00;28.33;;;21.37;;
14251;SDS011;7210;51.502;10.722;2023-12-07T07:39:28;28.83;;;21.53;;
14251;SDS011;7210;51.502;10.722;2023-12-07T07:41:57;28.23;;;21.07;;
14251;SDS011;7210;51.502;10.722;2023-12-07T07:44:26;30.40;;;22.43;;
14251;SDS011;7210;51.502;10.722;2023-12-07T07:47:09;28.30;;;20.10;;
14251;SDS011;7210;51.502;10.722;2023-12-07T07:52:15;23.77;;;18.77;;
14251;SDS011;7210;51.502;10.722;2023-12-07T07:54:42;23.03;;;17.67;;
14251;SDS011;7210;51.502;10.722;2023-12-07T07:57:15;30.27;;;21.07;;
14251;SDS011;7210;51.502;10.722;2023-12-07T07:59:44;32.87;;;22.27;;
14251;SDS011;7210;51.502;10.722;2023-12-07T08:02:11;31.60;;;22.27;;
14251;SDS011;7210;51.502;10.722;2023-12-07T08:04:39;31.43;;;22.50;;
14251;SDS011;7210;51.502;10.722;2023-12-07T08:07:09;33.73;;;23.23;;
14251;SDS011;7210;51.502;10.722;2023-12-07T08:09:39;30.40;;;20.47;;
14251;SDS011;7210;51.502;10.722;2023-12-07T08:12:09;29.20;;;20.63;;
14251;SDS011;7210;51.502;10.722;2023-12-07T08:14:47;27.63;;;20.30;;
14251;SDS011;7210;51.502;10.722;2023-12-07T08:17:15;27.13;;;18.87;;
14251;SDS011;7210;51.502;10.722;2023-12-07T08:19:44;27.43;;;19.70;;
14251;SDS011;7210;51.502;10.722;2023-12-07T08:22:16;26.43;;;19.63;;
14251;SDS011;7210;51.502;10.722;2023-12-07T08:24:43;25.47;;;19.83;;
14251;SDS011;7210;51.502;10.722;2023-12-07T08:27:27;25.73;;;19.00;;
14251;SDS011;7210;51.502;10.722;2023-12-07T08:29:59;25.60;;;18.27;;
14251;SDS011;7210;51.502;10.722;2023-12-07T08:36:13;24.60;;;18.47;;
14251;SDS011;7210;51.502;10.722;2023-12-07T08:41:48;25.90;;;19.80;;
14251;SDS011;7210;51.502;10.722;2023-12-07T08:44:14;27.03;;;19.30;;
14251;SDS011;7210;51.502;10.722;2023-12-07T08:52:51;33.00;;;23.07;;
14251;SDS011;7210;51.502;10.722;2023-12-07T08:55:21;31.77;;;22.67;;
14251;SDS011;7210;51.502;10.722;2023-12-07T08:57:48;37.17;;;24.37;;
14251;SDS011;7210;51.502;10.722;2023-12-07T09:00:15;31.73;;;22.50;;
14251;SDS011;7210;51.502;10.722;2023-12-07T09:02:45;32.17;;;23.20;;
14251;SDS011;7210;51.502;10.722;2023-12-07T09:05:12;31.30;;;22.83;;
14251;SDS011;7210;51.502;10.722;2023-12-07T09:07:41;35.43;;;23.60;;
14251;SDS011;7210;51.502;10.722;2023-12-07T09:10:21;33.90;;;23.87;;
14251;SDS011;7210;51.502;10.722;2023-12-07T09:12:57;29.40;;;23.00;;
14251;SDS011;7210;51.502;10.722;2023-12-07T09:15:24;33.03;;;24.37;;
14251;SDS011;7210;51.502;10.722;2023-12-07T09:17:51;31.23;;;23.07;;
14251;SDS011;7210;51.502;10.722;2023-12-07T09:20:18;32.30;;;24.30;;
14251;SDS011;7210;51.502;10.722;2023-12-07T09:22:46;34.97;;;24.67;;
14251;SDS011;7210;51.502;10.722;2023-12-07T09:25:15;33.00;;;23.93;;
14251;SDS011;7210;51.502;10.722;2023-12-07T09:27:42;33.40;;;23.77;;
14251;SDS011;7210;51.502;10.722;2023-12-07T09:30:10;36.20;;;24.87;;
14251;SDS011;7210;51.502;10.722;2023-12-07T09:32:38;35.87;;;24.87;;
14251;SDS011;7210;51.502;10.722;2023-12-07T09:35:06;31.67;;;24.17;;
14251;SDS011;7210;51.502;10.722;2023-12-07T09:37:40;33.13;;;24.33;;
14251;SDS011;7210;51.502;10.722;2023-12-07T09:40:12;34.83;;;25.97;;
14251;SDS011;7210;51.502;10.722;2023-12-07T09:42:42;40.40;;;27.67;;
14251;SDS011;7210;51.502;10.722;2023-12-07T09:45:09;36.80;;;27.33;;
14251;SDS011;7210;51.502;10.722;2023-12-07T09:47:37;35.97;;;26.00;;
14251;SDS011;7210;51.502;10.722;2023-12-07T09:50:06;40.03;;;27.17;;
14251;SDS011;7210;51.502;10.722;2023-12-07T09:52:34;44.40;;;30.47;;
14251;SDS011;7210;51.502;10.722;2023-12-07T09:55:01;44.83;;;33.23;;
14251;SDS011;7210;51.502;10.722;2023-12-07T09:57:30;39.97;;;28.87;;
14251;SDS011;7210;51.502;10.722;2023-12-07T09:59:58;127.90;;;79.93;;
14251;SDS011;7210;51.502;10.722;2023-12-07T10:02:27;78.40;;;51.10;;
14251;SDS011;7210;51.502;10.722;2023-12-07T10:05:05;49.83;;;37.03;;
14251;SDS011;7210;51.502;10.722;2023-12-07T10:07:33;45.80;;;32.40;;
14251;SDS011;7210;51.502;10.722;2023-12-07T10:10:02;37.57;;;27.40;;
14251;SDS011;7210;51.502;10.722;2023-12-07T10:12:35;40.07;;;27.43;;
14251;SDS011;7210;51.502;10.722;2023-12-07T10:15:11;35.50;;;27.03;;
14251;SDS011;7210;51.502;10.722;2023-12-07T10:17:48;36.63;;;28.27;;
14251;SDS011;7210;51.502;10.722;2023-12-07T10:20:16;34.63;;;26.10;;
14251;SDS011;7210;51.502;10.722;2023-12-07T10:22:43;34.30;;;26.23;;
14251;SDS011;7210;51.502;10.722;2023-12-07T10:25:11;35.13;;;26.77;;
14251;SDS011;7210;51.502;10.722;2023-12-07T10:27:41;32.57;;;24.73;;
14251;SDS011;7210;51.502;10.722;2023-12-07T10:30:09;34.73;;;25.43;;
14251;SDS011;7210;51.502;10.722;2023-12-07T10:32:37;32.60;;;25.47;;
14251;SDS011;7210;51.502;10.722;2023-12-07T10:35:08;33.17;;;26.13;;
14251;SDS011;7210;51.502;10.722;2023-12-07T10:37:35;30.07;;;24.27;;
14251;SDS011;7210;51.502;10.722;2023-12-07T10:40:03;32.63;;;24.37;;
14251;SDS011;7210;51.502;10.722;2023-12-07T10:42:34;31.20;;;24.77;;
14251;SDS011;7210;51.502;10.722;2023-12-07T10:45:05;30.57;;;24.07;;
14251;SDS011;7210;51.502;10.722;2023-12-07T10:47:34;31.83;;;25.47;;
14251;SDS011;7210;51.502;10.722;2023-12-07T10:50:03;31.43;;;24.63;;
14251;SDS011;7210;51.502;10.722;2023-12-07T10:52:51;30.70;;;24.30;;
14251;SDS011;7210;51.502;10.722;2023-12-07T10:55:22;32.83;;;25.90;;
14251;SDS011;7210;51.502;10.722;2023-12-07T10:57:54;30.40;;;24.63;;
14251;SDS011;7210;51.502;10.722;2023-12-07T11:00:29;30.57;;;24.47;;
14251;SDS011;7210;51.502;10.722;2023-12-07T11:02:57;33.60;;;25.43;;
14251;SDS011;7210;51.502;10.722;2023-12-07T11:05:25;30.63;;;24.10;;
14251;SDS011;7210;51.502;10.722;2023-12-07T11:07:55;30.80;;;25.07;;
14251;SDS011;7210;51.502;10.722;2023-12-07T11:10:28;31.87;;;24.20;;
14251;SDS011;7210;51.502;10.722;2023-12-07T11:13:00;32.43;;;25.80;;
14251;SDS011;7210;51.502;10.722;2023-12-07T11:15:41;31.50;;;24.77;;
14251;SDS011;7210;51.502;10.722;2023-12-07T11:18:08;30.60;;;23.90;;
14251;SDS011;7210;51.502;10.722;2023-12-07T11:20:41;30.07;;;24.93;;
14251;SDS011;7210;51.502;10.722;2023-12-07T11:23:11;32.27;;;25.17;;
14251;SDS011;7210;51.502;10.722;2023-12-07T11:25:38;30.50;;;25.10;;
14251;SDS011;7210;51.502;10.722;2023-12-07T11:28:05;32.17;;;24.43;;
14251;SDS011;7210;51.502;10.722;2023-12-07T11:30:34;30.63;;;24.93;;
14251;SDS011;7210;51.502;10.722;2023-12-07T11:33:04;32.43;;;24.50;;
14251;SDS011;7210;51.502;10.722;2023-12-07T11:35:32;30.87;;;24.37;;
14251;SDS011;7210;51.502;10.722;2023-12-07T11:38:09;29.40;;;24.33;;
14251;SDS011;7210;51.502;10.722;2023-12-07T11:40:40;31.73;;;24.93;;
14251;SDS011;7210;51.502;10.722;2023-12-07T11:43:07;31.73;;;25.63;;
14251;SDS011;7210;51.502;10.722;2023-12-07T11:45:46;32.73;;;25.33;;
14251;SDS011;7210;51.502;10.722;2023-12-07T11:48:15;31.23;;;25.67;;
14251;SDS011;7210;51.502;10.722;2023-12-07T11:50:55;34.53;;;24.80;;
14251;SDS011;7210;51.502;10.722;2023-12-07T11:53:28;31.83;;;25.10;;
14251;SDS011;7210;51.502;10.722;2023-12-07T11:55:56;29.50;;;24.03;;
14251;SDS011;7210;51.502;10.722;2023-12-07T11:58:28;34.27;;;26.23;;
14251;SDS011;7210;51.502;10.722;2023-12-07T12:00:57;33.53;;;26.83;;
14251;SDS011;7210;51.502;10.722;2023-12-07T12:03:30;33.13;;;25.80;;
14251;SDS011;7210;51.502;10.722;2023-12-07T12:05:58;31.90;;;25.47;;
14251;SDS011;7210;51.502;10.722;2023-12-07T12:08:25;32.10;;;23.53;;
14251;SDS011;7210;51.502;10.722;2023-12-07T12:10:54;32.17;;;25.40;;
14251;SDS011;7210;51.502;10.722;2023-12-07T12:13:27;31.57;;;25.10;;
14251;SDS011;7210;51.502;10.722;2023-12-07T12:15:55;32.83;;;24.87;;
14251;SDS011;7210;51.502;10.722;2023-12-07T12:18:22;28.00;;;23.10;;
14251;SDS011;7210;51.502;10.722;2023-12-07T12:20:55;33.60;;;23.57;;
14251;SDS011;7210;51.502;10.722;2023-12-07T12:23:24;32.03;;;23.80;;
14251;SDS011;7210;51.502;10.722;2023-12-07T12:25:51;28.83;;;23.03;;
14251;SDS011;7210;51.502;10.722;2023-12-07T12:28:21;32.20;;;24.60;;
14251;SDS011;7210;51.502;10.722;2023-12-07T12:30:50;30.93;;;23.43;;
14251;SDS011;7210;51.502;10.722;2023-12-07T12:33:18;30.50;;;23.10;;
14251;SDS011;7210;51.502;10.722;2023-12-07T12:35:45;31.33;;;22.67;;
14251;SDS011;7210;51.502;10.722;2023-12-07T12:38:13;28.97;;;22.77;;
14251;SDS011;7210;51.502;10.722;2023-12-07T12:40:45;28.97;;;23.83;;
14251;SDS011;7210;51.502;10.722;2023-12-07T12:43:12;32.50;;;24.30;;
14251;SDS011;7210;51.502;10.722;2023-12-07T12:45:39;31.33;;;25.17;;
14251;SDS011;7210;51.502;10.722;2023-12-07T12:48:06;34.30;;;26.20;;
14251;SDS011;7210;51.502;10.722;2023-12-07T12:50:34;31.17;;;24.80;;
14251;SDS011;7210;51.502;10.722;2023-12-07T12:53:04;32.17;;;25.27;;
14251;SDS011;7210;51.502;10.722;2023-12-07T12:55:36;31.73;;;24.77;;
14251;SDS011;7210;51.502;10.722;2023-12-07T12:58:06;29.57;;;23.73;;
14251;SDS011;7210;51.502;10.722;2023-12-07T13:03:15;34.70;;;25.57;;
14251;SDS011;7210;51.502;10.722;2023-12-07T13:05:45;31.20;;;24.37;;
14251;SDS011;7210;51.502;10.722;2023-12-07T13:08:13;33.53;;;24.37;;
14251;SDS011;7210;51.502;10.722;2023-12-07T13:10:47;31.30;;;23.80;;
14251;SDS011;7210;51.502;10.722;2023-12-07T13:13:15;31.97;;;24.67;;
14251;SDS011;7210;51.502;10.722;2023-12-07T13:15:42;31.73;;;24.47;;
14251;SDS011;7210;51.502;10.722;2023-12-07T13:18:09;29.87;;;23.00;;
14251;SDS011;7210;51.502;10.722;2023-12-07T13:20:36;35.47;;;25.83;;
14251;SDS011;7210;51.502;10.722;2023-12-07T13:23:03;35.57;;;28.47;;
14251;SDS011;7210;51.502;10.722;2023-12-07T13:25:31;34.37;;;26.47;;
14251;SDS011;7210;51.502;10.722;2023-12-07T13:27:59;35.83;;;27.90;;
14251;SDS011;7210;51.502;10.722;2023-12-07T13:30:27;36.73;;;28.07;;
14251;SDS011;7210;51.502;10.722;2023-12-07T13:32:58;35.97;;;27.53;;
14251;SDS011;7210;51.502;10.722;2023-12-07T13:35:27;35.40;;;26.43;;
14251;SDS011;7210;51.502;10.722;2023-12-07T13:37:54;33.60;;;25.87;;
14251;SDS011;7210;51.502;10.722;2023-12-07T13:40:27;35.07;;;26.37;;
14251;SDS011;7210;51.502;10.722;2023-12-07T13:42:54;34.93;;;26.20;;
14251;SDS011;7210;51.502;10.722;2023-12-07T13:45:22;33.23;;;26.33;;
14251;SDS011;7210;51.502;10.722;2023-12-07T13:47:49;31.23;;;25.20;;
14251;SDS011;7210;51.502;10.722;2023-12-07T13:50:17;31.83;;;23.83;;
14251;SDS011;7210;51.502;10.722;2023-12-07T13:52:44;32.87;;;24.33;;
14251;SDS011;7210;51.502;10.722;2023-12-07T13:55:15;32.37;;;24.33;;
14251;SDS011;7210;51.502;10.722;2023-12-07T13:57:45;32.43;;;25.50;;
14251;SDS011;7210;51.502;10.722;2023-12-07T14:00:13;31.87;;;25.10;;
14251;SDS011;7210;51.502;10.722;2023-12-07T14:02:47;33.57;;;25.93;;
14251;SDS011;7210;51.502;10.722;2023-12-07T14:05:14;32.17;;;24.80;;
14251;SDS011;7210;51.502;10.722;2023-12-07T14:07:41;34.33;;;25.83;;
14251;SDS011;7210;51.502;10.722;2023-12-07T14:10:08;37.03;;;25.57;;
14251;SDS011;7210;51.502;10.722;2023-12-07T14:12:35;35.40;;;26.73;;
14251;SDS011;7210;51.502;10.722;2023-12-07T14:15:02;35.20;;;26.00;;
14251;SDS011;7210;51.502;10.722;2023-12-07T14:17:29;37.83;;;25.70;;
14251;SDS011;7210;51.502;10.722;2023-12-07T14:20:05;38.43;;;28.17;;
14251;SDS011;7210;51.502;10.722;2023-12-07T14:22:34;36.97;;;26.40;;
14251;SDS011;7210;51.502;10.722;2023-12-07T14:25:01;39.57;;;26.87;;
14251;SDS011;7210;51.502;10.722;2023-12-07T14:27:28;38.37;;;26.37;;
14251;SDS011;7210;51.502;10.722;2023-12-07T14:29:57;40.33;;;26.53;;
14251;SDS011;7210;51.502;10.722;2023-12-07T14:32:27;36.30;;;26.83;;
14251;SDS011;7210;51.502;10.722;2023-12-07T14:34:55;39.47;;;27.30;;
14251;SDS011;7210;51.502;10.722;2023-12-07T14:37:29;37.50;;;27.03;;
14251;SDS011;7210;51.502;10.722;2023-12-07T14:39:56;40.03;;;26.87;;
14251;SDS011;7210;51.502;10.722;2023-12-07T14:42:33;43.80;;;27.33;;
14251;SDS011;7210;51.502;10.722;2023-12-07T14:45:00;40.27;;;27.33;;
14251;SDS011;7210;51.502;10.722;2023-12-07T14:47:27;39.87;;;26.03;;
14251;SDS011;7210;51.502;10.722;2023-12-07T14:49:54;38.63;;;26.57;;
14251;SDS011;7210;51.502;10.722;2023-12-07T14:52:22;36.77;;;26.20;;
14251;SDS011;7210;51.502;10.722;2023-12-07T14:54:51;38.00;;;26.47;;
14251;SDS011;7210;51.502;10.722;2023-12-07T14:57:18;36.53;;;26.17;;
14251;SDS011;7210;51.502;10.722;2023-12-07T14:59:45;35.37;;;25.97;;
14251;SDS011;7210;51.502;10.722;2023-12-07T15:02:14;38.00;;;26.97;;
14251;SDS011;7210;51.502;10.722;2023-12-07T15:04:45;38.47;;;26.53;;